Neidpath, Canada
Current Conditions -  °F | °C
As of 5:00 AM on Friday 28 Nov 2014 (Local Time) from CYYN Reporting Station
Overcast Overcast  
Wind Chill: -4°   Ceiling: 600
Heat Index: 12°   Visibility: 9mi
Dew Point: 10°   Wind: 15mph
Humidity: 92%   Direction: 130°SE
Pressure: 29.6"   Gusts: NA
Location:  50.23°N, 107.25°W
Report Text: CYYN 281100Z AUTO 13013KT 9SM OVC006 M11/M12 A2960 RMK PRESFR SLP070
Loading
Personal Weather Stations






























Interactive Weather Map New forecast layout! Learn more

10-Day Weather Forecast

Advertisements
Track Severe Weather on mobile